.
WxDataArchive / Data Records for 2015-06-24
2015-06-23 June 2015 2015-06-25

Data Records for Wednesday, 24 June 2015

Time	Temp	Chill	HIndex	Humid	Dewpt	 Wind 	HiWind	WindDir	Rain 	Barom
-----	----	-----	------	-----	-----	------	------	-------	-----	-----
00:00	63.5	63.5	63.5	73	54.7	0	0	---	0.00	30.050 
00:05	63.4	63.4	63.4	73	54.6	0	0	---	0.00	30.050 
00:10	63.4	63.4	63.4	74	55.0	0	0	---	0.00	30.050 
00:15	63.2	63.2	63.2	74	54.8	0	0	---	0.00	30.049 
00:20	63.2	63.2	63.2	74	54.8	0	0	---	0.00	30.049 
00:25	63.2	63.2	63.2	74	54.8	0	0	---	0.00	30.049 
00:30	63.1	63.1	63.1	75	55.0	0	0	---	0.00	30.052 
00:35	62.9	62.9	62.9	75	54.8	0	0	---	0.00	30.052 
00:40	62.7	62.7	62.7	75	54.7	0	0	---	0.00	30.052 
00:45	62.4	62.4	62.4	75	54.4	0	0	---	0.00	30.051 
00:50	62.3	62.3	62.3	76	54.6	0	0	---	0.00	30.051 
00:55	62.1	62.1	62.1	77	54.8	0	0	---	0.00	30.051 
01:00	62.1	62.1	62.1	77	54.8	0	0	---	0.00	30.052 
01:05	62.1	62.1	62.1	77	54.8	0	1	292	0.00	30.052 
01:10	62.0	62.0	62.0	77	54.7	0	0	---	0.00	30.052 
01:15	62.0	62.0	62.0	77	54.7	0	0	---	0.00	30.052 
01:20	61.8	61.8	61.8	77	54.5	0	0	---	0.00	30.052 
01:25	61.8	61.8	61.8	77	54.5	0	0	---	0.00	30.052 
01:30	61.6	61.6	61.6	77	54.3	0	0	---	0.00	30.050 
01:35	61.5	61.5	61.5	77	54.2	0	0	---	0.00	30.050 
01:40	61.3	61.3	61.3	78	54.4	0	0	---	0.00	30.050 
01:45	61.0	61.0	61.0	78	54.1	0	0	---	0.00	30.047 
01:50	60.7	60.7	60.7	79	54.1	0	0	---	0.00	30.047 
01:55	60.4	60.4	60.4	80	54.2	0	0	---	0.00	30.047 
02:00	60.2	60.2	60.2	80	54.0	0	0	---	0.00	30.054 
02:05	60.2	60.2	60.2	80	54.0	0	0	---	0.00	30.054 
02:10	60.2	60.2	60.2	80	54.0	0	0	---	0.00	30.054 
02:15	60.2	60.2	60.2	80	54.0	0	0	---	0.00	30.054 
02:20	60.1	60.1	60.1	80	53.9	0	0	---	0.00	30.054 
02:25	59.9	59.9	59.9	81	54.1	0	0	---	0.00	30.054 
02:30	59.8	59.8	59.8	81	54.0	0	0	---	0.00	30.057 
02:35	59.6	59.6	59.6	81	53.8	0	0	---	0.00	30.057 
02:40	59.5	59.5	59.5	82	54.0	0	0	---	0.00	30.057 
02:45	59.5	59.5	59.5	82	54.0	0	0	---	0.00	30.063 
02:50	59.3	59.3	59.3	82	53.8	0	0	---	0.00	30.063 
02:55	59.3	59.3	59.3	82	53.8	0	0	---	0.00	30.063 
03:00	59.3	59.3	59.3	82	53.8	0	0	---	0.00	30.068 
03:05	59.3	59.3	59.3	82	53.8	0	0	---	0.00	30.068 
03:10	59.3	59.3	59.3	81	53.5	0	0	---	0.00	30.068 
03:15	59.2	59.2	59.2	81	53.4	0	0	---	0.00	30.067 
03:20	59.2	59.2	59.2	82	53.7	0	0	---	0.00	30.067 
03:25	59.0	59.0	59.0	82	53.5	0	0	---	0.00	30.067 
03:30	58.9	58.9	58.9	82	53.4	0	0	---	0.00	30.069 
03:35	58.9	58.9	58.9	83	53.7	0	0	---	0.00	30.069 
03:40	58.9	58.9	58.9	83	53.7	0	0	---	0.00	30.069 
03:45	58.7	58.7	58.7	83	53.5	0	0	---	0.00	30.069 
03:50	58.6	58.6	58.6	84	53.8	0	0	---	0.00	30.069 
03:55	58.6	58.6	58.6	84	53.8	0	0	---	0.00	30.069 
04:00	58.4	58.4	58.4	84	53.6	0	0	---	0.00	30.077 
04:05	58.3	58.3	58.3	84	53.5	0	0	---	0.00	30.077 
04:10	58.3	58.3	58.3	85	53.8	0	0	---	0.00	30.077 
04:15	58.3	58.3	58.3	85	53.8	0	0	---	0.00	30.085 
04:20	58.1	58.1	58.1	85	53.6	0	0	---	0.00	30.085 
04:25	58.0	58.0	58.0	85	53.5	0	0	---	0.00	30.085 
04:30	57.8	57.8	57.8	85	53.3	0	0	---	0.00	30.087 
04:35	57.6	57.6	57.6	86	53.4	0	0	---	0.00	30.087 
04:40	57.6	57.6	57.6	86	53.4	0	0	---	0.00	30.087 
04:45	57.5	57.5	57.5	86	53.3	0	0	---	0.00	30.094 
04:50	57.3	57.3	57.3	86	53.1	0	0	---	0.00	30.094 
04:55	57.2	57.2	57.2	86	53.0	0	0	---	0.00	30.094 
05:00	57.2	57.2	57.2	87	53.4	0	0	---	0.00	30.095 
05:05	57.0	57.0	57.0	87	53.2	0	0	---	0.00	30.095 
05:10	57.0	57.0	57.0	87	53.2	0	0	---	0.00	30.095 
05:15	56.9	56.9	56.9	87	53.1	0	0	---	0.00	30.093 
05:20	56.7	56.7	56.7	88	53.2	0	0	---	0.00	30.093 
05:25	56.6	56.6	56.6	88	53.1	0	1	292	0.00	30.093 
05:30	56.5	56.5	56.5	88	53.0	0	0	---	0.00	30.099 
05:35	56.5	56.5	56.5	89	53.3	0	0	---	0.00	30.099 
05:40	56.6	56.6	56.6	89	53.4	0	0	---	0.00	30.099 
05:45	56.6	56.6	56.6	89	53.4	0	0	---	0.00	30.102 
05:50	56.6	56.6	56.6	89	53.4	0	0	---	0.00	30.102 
05:55	56.6	56.6	56.6	89	53.4	0	0	---	0.00	30.102 
06:00	56.5	56.5	56.5	89	53.3	0	0	---	0.00	30.102 
06:05	56.3	56.3	56.3	89	53.1	0	0	---	0.00	30.102 
06:10	56.2	56.2	56.2	89	53.0	0	0	---	0.00	30.102 
06:15	56.2	56.2	56.2	90	53.3	0	0	---	0.00	30.115 
06:20	56.2	56.2	56.2	90	53.3	0	0	---	0.00	30.115 
06:25	56.2	56.2	56.2	90	53.3	0	0	---	0.00	30.115 
06:30	56.2	56.2	56.2	90	53.3	0	0	---	0.00	30.118 
06:35	56.3	56.3	56.3	91	53.7	0	0	---	0.00	30.118 
06:40	56.5	56.5	56.5	91	53.9	0	0	---	0.00	30.118 
06:45	56.5	56.5	56.5	91	53.9	0	0	---	0.00	30.124 
06:50	56.6	56.6	56.6	91	54.0	0	0	---	0.00	30.124 
06:55	56.7	56.7	56.7	91	54.1	0	0	---	0.00	30.124 
07:00	56.9	56.9	56.9	91	54.3	0	0	---	0.00	30.122 
07:05	57.2	57.2	57.2	92	54.9	0	0	---	0.00	30.122 
07:10	57.6	57.6	57.6	92	55.3	0	0	---	0.00	30.122 
07:15	58.1	58.1	58.1	92	55.8	0	0	---	0.00	30.131 
07:20	58.4	58.4	58.4	91	55.8	0	0	---	0.00	30.131 
07:25	58.9	58.9	58.9	91	56.3	0	0	---	0.00	30.131 
07:30	59.5	59.5	59.5	90	56.6	0	0	---	0.00	30.128 
07:35	60.1	60.1	60.1	88	56.5	0	0	---	0.00	30.128 
07:40	60.5	60.5	60.5	87	56.6	0	1	292	0.00	30.128 
07:45	61.2	61.2	61.2	85	56.6	0	1	292	0.00	30.129 
07:50	61.6	61.6	61.6	84	56.7	0	1	292	0.00	30.129 
07:55	62.0	62.0	62.0	81	56.1	0	2	292	0.00	30.129 
08:00	62.6	62.6	62.6	81	56.7	0	1	292	0.00	30.131 
08:05	63.1	63.1	63.1	80	56.8	0	1	112	0.00	30.131 
08:10	63.5	63.5	63.5	78	56.5	0	1	112	0.00	30.131 
08:15	64.0	64.0	64.0	77	56.6	0	1	112	0.00	30.134 
08:20	64.5	64.5	64.5	76	56.8	0	1	112	0.00	30.134 
08:25	64.8	64.8	64.8	75	56.7	0	1	112	0.00	30.134 
08:30	65.3	65.3	65.3	74	56.8	0	2	112	0.00	30.134 
08:35	65.6	65.6	65.6	73	56.7	0	1	112	0.00	30.134 
08:40	65.8	65.8	65.8	72	56.5	1	2	112	0.00	30.134 
08:45	66.1	66.1	66.1	71	56.4	0	2	112	0.00	30.142 
08:50	66.4	66.4	66.4	71	56.7	0	2	112	0.00	30.142 
08:55	66.8	66.8	66.8	69	56.3	0	1	112	0.00	30.142 
09:00	67.3	67.3	67.3	70	57.2	0	1	112	0.00	30.138 
09:05	67.8	67.8	67.8	70	57.6	0	1	112	0.00	30.138 
09:10	68.1	68.1	68.1	68	57.1	0	2	112	0.00	30.138 
09:15	68.3	68.3	68.3	68	57.3	0	2	112	0.00	30.145 
09:20	68.6	68.6	68.6	67	57.2	0	1	112	0.00	30.145 
09:25	69.1	69.1	69.1	67	57.7	0	1	112	0.00	30.145 
09:30	69.4	69.4	69.4	64	56.7	0	1	112	0.00	30.145 
09:35	69.9	69.9	69.9	65	57.6	0	1	112	0.00	30.145 
09:40	70.6	70.6	70.6	66	58.7	0	1	112	0.00	30.145 
09:45	71.5	71.5	71.5	64	58.7	0	1	112	0.00	30.136 
09:50	71.8	71.8	71.8	61	57.6	0	2	112	0.00	30.136 
09:55	72.3	72.3	72.3	60	57.6	0	1	112	0.00	30.136 
10:00	72.1	72.1	72.1	58	56.5	0	2	112	0.00	30.131 
10:05	72.0	72.0	72.0	57	55.9	1	2	112	0.00	30.131 
10:10	72.5	72.5	72.5	59	57.3	0	0	---	0.00	30.131 
10:15	73.0	73.0	73.0	55	55.9	0	2	112	0.00	30.126 
10:20	73.0	73.0	73.0	57	56.9	0	2	112	0.00	30.126 
10:25	73.2	73.2	73.2	55	56.0	0	1	292	0.00	30.126 
10:30	73.3	73.3	73.3	55	56.1	0	2	292	0.00	30.115 
10:35	73.0	73.0	73.0	55	55.9	1	4	292	0.00	30.115 
10:40	73.2	73.2	73.2	57	57.0	0	2	292	0.00	30.115 
10:45	73.7	73.7	73.7	54	56.0	1	3	292	0.00	30.112 
10:50	74.0	74.0	74.0	52	55.2	0	2	292	0.00	30.112 
10:55	74.0	74.0	74.0	52	55.2	0	2	292	0.00	30.112 
11:00	73.7	73.7	73.7	51	54.4	1	2	292	0.00	30.114 
11:05	73.9	73.9	73.9	54	56.2	0	2	292	0.00	30.114 
11:10	73.9	73.9	73.9	53	55.7	0	2	292	0.00	30.114 
11:15	73.9	73.9	73.9	51	54.6	1	3	292	0.00	30.116 
11:20	74.0	74.0	74.0	50	54.2	0	2	292	0.00	30.116 
11:25	74.2	74.2	74.2	50	54.3	0	2	292	0.00	30.116 
11:30	74.2	74.2	74.2	47	52.7	0	1	292	0.00	30.119 
11:35	74.0	74.0	74.0	47	52.5	1	3	292	0.00	30.119 
11:40	73.9	73.9	73.9	49	53.5	0	1	292	0.00	30.119 
11:45	73.9	73.9	73.9	50	54.1	0	2	315	0.00	30.129 
11:50	74.0	74.0	74.0	48	53.0	0	1	315	0.00	30.129 
11:55	74.0	74.0	74.0	47	52.5	1	5	315	0.00	30.129 
12:00	74.2	74.2	74.2	48	53.2	0	2	315	0.00	30.127 
12:05	74.4	74.4	74.4	47	52.8	0	1	315	0.00	30.127 
12:10	74.4	74.4	74.4	48	53.4	1	3	315	0.00	30.127 
12:15	74.6	74.6	74.6	44	51.2	0	2	338	0.00	30.131 
12:20	74.7	74.7	74.7	41	49.4	0	3	338	0.00	30.131 
12:25	74.9	74.9	74.9	42	50.2	0	2	338	0.00	30.131 
12:30	74.9	74.9	74.9	42	50.2	0	2	338	0.00	30.124 
12:35	75.1	75.1	77.6	43	51.1	0	2	338	0.00	30.124 
12:40	75.3	75.3	77.6	41	50.0	0	1	338	0.00	30.124 
12:45	75.6	75.6	77.8	43	51.5	0	3	338	0.00	30.121 
12:50	75.8	75.8	77.7	40	49.7	1	3	338	0.00	30.121 
12:55	75.8	75.8	77.8	42	51.1	0	2	338	0.00	30.121 
13:00	76.0	76.0	77.9	43	51.9	0	1	338	0.00	30.128 
13:05	76.0	76.0	77.9	42	51.2	0	1	338	0.00	30.128 
13:10	76.1	76.1	78.0	43	52.0	0	2	338	0.00	30.128 
13:15	76.0	76.0	77.8	40	49.9	0	1	338	0.00	30.120 
13:20	75.8	75.8	77.7	39	49.1	0	3	338	0.00	30.120 
13:25	75.8	75.8	77.8	43	51.7	0	1	338	0.00	30.120 
13:30	75.6	75.6	77.7	40	49.6	0	1	338	0.00	30.128 
13:35	75.6	75.6	77.6	39	48.9	0	2	338	0.00	30.128 
13:40	75.8	75.8	77.8	41	50.4	0	3	338	0.00	30.128 
13:45	76.1	76.1	77.8	38	48.6	1	3	338	0.00	30.137 
13:50	76.5	76.5	77.9	38	49.0	1	2	338	0.00	30.137 
13:55	76.7	76.7	78.1	39	49.9	1	3	338	0.00	30.137 
14:00	77.2	77.2	78.4	42	52.3	1	3	338	0.00	30.138 
14:05	77.6	77.6	78.4	38	50.0	1	2	338	0.00	30.138 
14:10	77.6	77.6	78.4	38	50.0	1	5	90	0.00	30.138 
14:15	77.7	77.7	78.5	39	50.7	1	2	90	0.00	30.138 
14:20	78.1	78.1	78.9	42	53.1	0	2	90	0.00	30.138 
14:25	77.9	77.9	78.6	38	50.2	1	3	90	0.00	30.138 
14:30	77.7	77.7	78.6	40	51.4	1	3	22	0.00	30.138 
14:35	77.7	77.7	78.6	40	51.4	0	2	22	0.00	30.138 
14:40	77.9	77.9	78.6	39	50.9	0	1	22	0.00	30.138 
14:45	78.3	78.3	78.8	39	51.3	0	2	22	0.00	30.143 
14:50	78.3	78.3	78.8	39	51.3	0	2	22	0.00	30.143 
14:55	78.5	78.5	78.9	38	50.8	1	3	22	0.00	30.143 
15:00	78.3	78.3	78.8	39	51.3	1	3	45	0.00	30.139 
15:05	78.3	78.3	78.8	39	51.3	1	3	22	0.00	30.139 
15:10	77.9	77.9	78.6	39	50.9	0	2	292	0.00	30.139 
15:15	77.7	77.7	78.5	39	50.7	0	2	292	0.00	30.133 
15:20	77.7	77.7	78.6	40	51.4	0	2	292	0.00	30.133 
15:25	77.7	77.7	78.7	42	52.8	0	1	292	0.00	30.133 
15:30	77.7	77.7	78.6	40	51.4	0	1	292	0.00	30.127 
15:35	77.7	77.7	78.7	42	52.8	0	2	292	0.00	30.127 
15:40	77.7	77.7	78.8	44	54.0	0	1	292	0.00	30.127 
15:45	78.1	78.1	79.1	46	55.6	0	1	292	0.00	30.119 
15:50	78.3	78.3	78.9	41	52.6	0	1	292	0.00	30.119 
15:55	78.5	78.5	79.2	44	54.7	0	1	292	0.00	30.119 
16:00	78.6	78.6	79.0	40	52.2	0	2	292	0.00	30.109 
16:05	78.6	78.6	79.1	41	52.9	0	2	292	0.00	30.109 
16:10	78.6	78.6	79.2	42	53.6	0	2	292	0.00	30.109 
16:15	78.5	78.5	79.2	43	54.1	0	2	292	0.00	30.102 
16:20	78.3	78.3	79.2	45	55.2	0	1	292	0.00	30.102 
16:25	78.1	78.1	79.1	46	55.6	0	1	292	0.00	30.102 
16:30	77.9	77.9	78.9	44	54.2	0	1	292	0.00	30.102 
16:35	77.7	77.7	78.8	45	54.6	0	2	292	0.00	30.102 
16:40	77.4	77.4	78.6	45	54.4	0	3	292	0.00	30.102 
16:45	77.4	77.4	78.7	47	55.6	0	1	292	0.00	30.087 
16:50	77.4	77.4	78.7	47	55.6	0	1	292	0.00	30.087 
16:55	77.6	77.6	78.8	46	55.2	0	1	292	0.00	30.087 
17:00	77.4	77.4	78.7	46	55.0	0	1	292	0.00	30.080 
17:05	77.4	77.4	78.6	45	54.4	0	1	292	0.00	30.080 
17:10	77.2	77.2	78.6	46	54.8	0	1	292	0.00	30.080 
17:15	77.2	77.2	78.6	46	54.8	0	1	292	0.00	30.075 
17:20	77.0	77.0	78.4	45	54.0	0	1	292	0.00	30.075 
17:25	76.8	76.8	78.4	47	55.0	0	0	---	0.00	30.075 
17:30	76.8	76.8	78.4	47	55.0	0	0	---	0.00	30.071 
17:35	76.8	76.8	78.4	46	54.4	0	0	---	0.00	30.071 
17:40	76.8	76.8	78.3	45	53.8	0	1	292	0.00	30.071 
17:45	76.8	76.8	78.3	44	53.2	0	1	292	0.00	30.063 
17:50	77.0	77.0	78.6	50	56.9	0	0	---	0.00	30.063 
17:55	77.2	77.2	78.5	45	54.2	0	0	---	0.00	30.063 
18:00	77.2	77.2	78.5	45	54.2	0	1	292	0.00	30.058 
18:05	77.2	77.2	78.6	47	55.4	0	0	---	0.00	30.058 
18:10	77.2	77.2	78.7	48	56.0	0	1	292	0.00	30.058 
18:15	76.8	76.8	78.4	46	54.4	0	1	292	0.00	30.063 
18:20	76.8	76.8	78.5	49	56.2	0	1	292	0.00	30.063 
18:25	76.8	76.8	78.4	48	55.6	0	0	---	0.00	30.063 
18:30	76.8	76.8	78.5	49	56.2	0	1	292	0.00	30.055 
18:35	76.7	76.7	78.3	45	53.7	0	1	292	0.00	30.055 
18:40	76.8	76.8	78.4	47	55.0	0	0	---	0.00	30.055 
18:45	76.7	76.7	78.3	45	53.7	0	1	292	0.00	30.055 
18:50	76.5	76.5	78.2	46	54.2	0	0	---	0.00	30.055 
18:55	76.3	76.3	78.1	45	53.4	0	1	292	0.00	30.055 
19:00	76.5	76.5	78.3	48	55.3	0	1	292	0.00	30.056 
19:05	76.7	76.7	78.4	47	54.9	0	0	---	0.00	30.056 
19:10	76.7	76.7	78.4	47	54.9	0	0	---	0.00	30.056 
19:15	76.7	76.7	78.4	48	55.5	0	0	---	0.00	30.051 
19:20	76.7	76.7	78.4	49	56.1	0	0	---	0.00	30.051 
19:25	76.5	76.5	78.3	47	54.7	0	0	---	0.00	30.051 
19:30	76.3	76.3	78.2	47	54.6	0	0	---	0.00	30.053 
19:35	76.1	76.1	78.1	48	55.0	0	0	---	0.00	30.053 
19:40	76.1	76.1	78.1	47	54.4	0	1	292	0.00	30.053 
19:45	76.1	76.1	78.1	47	54.4	0	1	292	0.00	30.059 
19:50	76.1	76.1	78.0	46	53.8	0	1	292	0.00	30.059 
19:55	76.0	76.0	78.0	47	54.3	0	1	292	0.00	30.059 
20:00	76.0	76.0	78.0	48	54.9	0	0	---	0.00	30.062 
20:05	75.8	75.8	78.0	51	56.4	0	0	---	0.00	30.062 
20:10	75.6	75.6	77.9	51	56.2	0	0	---	0.00	30.062 
20:15	75.1	75.1	77.6	52	56.3	0	0	---	0.00	30.056 
20:20	74.9	74.9	74.9	52	56.1	0	0	---	0.00	30.056 
20:25	74.6	74.6	74.6	52	55.8	0	0	---	0.00	30.056 
20:30	74.4	74.4	74.4	54	56.7	0	0	---	0.00	30.055 
20:35	73.9	73.9	73.9	54	56.2	0	0	---	0.00	30.055 
20:40	73.7	73.7	73.7	55	56.5	0	0	---	0.00	30.055 
20:45	73.3	73.3	73.3	56	56.6	0	0	---	0.00	30.065 
20:50	73.0	73.0	73.0	57	56.9	0	0	---	0.00	30.065 
20:55	72.8	72.8	72.8	57	56.7	0	0	---	0.00	30.065 
21:00	72.7	72.7	72.7	57	56.6	0	0	---	0.00	30.069 
21:05	72.5	72.5	72.5	57	56.4	0	0	---	0.00	30.069 
21:10	72.5	72.5	72.5	57	56.4	0	0	---	0.00	30.069 
21:15	72.5	72.5	72.5	57	56.4	0	0	---	0.00	30.065 
21:20	72.5	72.5	72.5	57	56.4	0	1	292	0.00	30.065 
21:25	72.5	72.5	72.5	57	56.4	0	0	---	0.00	30.065 
21:30	72.5	72.5	72.5	56	55.9	0	0	---	0.00	30.054 
21:35	72.3	72.3	72.3	56	55.7	0	0	---	0.00	30.054 
21:40	72.1	72.1	72.1	59	57.0	0	1	292	0.00	30.054 
21:45	71.8	71.8	71.8	58	56.2	0	0	---	0.00	30.048 
21:50	71.5	71.5	71.5	59	56.4	0	0	---	0.00	30.048 
21:55	71.3	71.3	71.3	61	57.1	0	0	---	0.00	30.048 
22:00	70.9	70.9	70.9	62	57.2	0	0	---	0.00	30.048 
22:05	70.8	70.8	70.8	63	57.6	0	0	---	0.00	30.048 
22:10	70.3	70.3	70.3	62	56.7	0	0	---	0.00	30.048 
22:15	70.1	70.1	70.1	64	57.3	0	0	---	0.00	30.054 
22:20	69.8	69.8	69.8	64	57.1	0	0	---	0.00	30.054 
22:25	69.4	69.4	69.4	65	57.1	0	0	---	0.00	30.054 
22:30	69.1	69.1	69.1	66	57.3	0	0	---	0.00	30.056 
22:35	68.9	68.9	68.9	66	57.1	0	0	---	0.00	30.056 
22:40	68.8	68.8	68.8	68	57.8	0	0	---	0.00	30.056 
22:45	68.6	68.6	68.6	68	57.6	0	0	---	0.00	30.063 
22:50	68.4	68.4	68.4	69	57.8	0	0	---	0.00	30.063 
22:55	68.4	68.4	68.4	67	57.0	0	0	---	0.00	30.063 
23:00	68.4	68.4	68.4	66	56.6	0	1	292	0.00	30.053 
23:05	68.8	68.8	68.8	66	57.0	0	1	292	0.00	30.053 
23:10	68.8	68.8	68.8	66	57.0	0	0	---	0.00	30.053 
23:15	68.8	68.8	68.8	66	57.0	0	0	---	0.00	30.062 
23:20	68.6	68.6	68.6	66	56.8	0	0	---	0.00	30.062 
23:25	68.4	68.4	68.4	66	56.6	0	0	---	0.00	30.062 
23:30	68.4	68.4	68.4	67	57.0	0	0	---	0.00	30.064 
23:35	68.4	68.4	68.4	68	57.4	0	0	---	0.00	30.064 
23:40	68.3	68.3	68.3	69	57.7	0	0	---	0.00	30.064 
23:45	68.3	68.3	68.3	69	57.7	0	0	---	0.00	30.064 
23:50	68.3	68.3	68.3	69	57.7	0	0	---	0.00	30.064 
23:55	68.3	68.3	68.3	71	58.5	0	0	---	0.00	30.064 

CoCoRaHS
IN-AL-39
A2 Web Hosting
Creative Commons License
GoDaddy
search engine by freefind advanced

loaded 2018-11-13 21:14:41 • last modified 2010-11-18 10:43:29
Privacy PolicyDisclaimer
• wx.awcolley.com is powered by PmWiki v.2002016 •
• all content (unless otherwise noted) © 2018 A W Colley